sensor_id;sensor_type;location;lat;lon;timestamp;temperature;humidity
3790;DHT22;1910;49.042;9.028;2022-11-30T00:03:25;7.30;99.90
3790;DHT22;1910;49.042;9.028;2022-11-30T00:05:51;7.30;99.90
3790;DHT22;1910;49.042;9.028;2022-11-30T00:15:36;7.10;99.90
3790;DHT22;1910;49.042;9.028;2022-11-30T00:20:27;7.20;99.90
3790;DHT22;1910;49.042;9.028;2022-11-30T00:22:55;7.20;99.90
3790;DHT22;1910;49.042;9.028;2022-11-30T00:30:14;6.80;99.90
3790;DHT22;1910;49.042;9.028;2022-11-30T00:32:42;6.80;99.90
3790;DHT22;1910;49.042;9.028;2022-11-30T00:40:00;6.70;99.90
3790;DHT22;1910;49.042;9.028;2022-11-30T00:47:18;6.70;99.90
3790;DHT22;1910;49.042;9.028;2022-11-30T00:49:43;6.90;99.90
3790;DHT22;1910;49.042;9.028;2022-11-30T00:57:07;6.80;99.90
3790;DHT22;1910;49.042;9.028;2022-11-30T00:59:33;6.70;99.90
3790;DHT22;1910;49.042;9.028;2022-11-30T01:01:58;6.70;99.90
3790;DHT22;1910;49.042;9.028;2022-11-30T01:04:24;6.70;99.90
3790;DHT22;1910;49.042;9.028;2022-11-30T01:21:27;6.70;99.90
3790;DHT22;1910;49.042;9.028;2022-11-30T01:26:19;6.70;99.90
3790;DHT22;1910;49.042;9.028;2022-11-30T01:28:49;6.60;99.90
3790;DHT22;1910;49.042;9.028;2022-11-30T01:31:16;7.90;99.90
3790;DHT22;1910;49.042;9.028;2022-11-30T01:36:16;6.50;99.90
3790;DHT22;1910;49.042;9.028;2022-11-30T01:38:50;6.40;99.90
3790;DHT22;1910;49.042;9.028;2022-11-30T01:41:19;6.40;99.90
3790;DHT22;1910;49.042;9.028;2022-11-30T01:44:49;6.40;99.90
3790;DHT22;1910;49.042;9.028;2022-11-30T01:46:56;6.40;99.90
3790;DHT22;1910;49.042;9.028;2022-11-30T01:49:37;6.40;99.90
3790;DHT22;1910;49.042;9.028;2022-11-30T01:52:10;6.50;99.90
3790;DHT22;1910;49.042;9.028;2022-11-30T01:54:51;6.40;99.90
3790;DHT22;1910;49.042;9.028;2022-11-30T01:57:24;6.40;99.90
3790;DHT22;1910;49.042;9.028;2022-11-30T01:59:52;6.50;99.90
3790;DHT22;1910;49.042;9.028;2022-11-30T02:02:21;6.50;99.90
3790;DHT22;1910;49.042;9.028;2022-11-30T02:09:43;6.40;99.90
3790;DHT22;1910;49.042;9.028;2022-11-30T02:12:31;6.80;99.90
3790;DHT22;1910;49.042;9.028;2022-11-30T02:15:04;7.10;99.90
3790;DHT22;1910;49.042;9.028;2022-11-30T02:17:59;6.40;99.90
3790;DHT22;1910;49.042;9.028;2022-11-30T02:29:09;6.70;99.90
3790;DHT22;1910;49.042;9.028;2022-11-30T02:31:59;6.70;99.90
3790;DHT22;1910;49.042;9.028;2022-11-30T02:34:29;6.60;99.90
3790;DHT22;1910;49.042;9.028;2022-11-30T02:36:58;6.50;99.90
3790;DHT22;1910;49.042;9.028;2022-11-30T02:41:51;6.40;99.90
3790;DHT22;1910;49.042;9.028;2022-11-30T02:44:18;6.40;99.90
3790;DHT22;1910;49.042;9.028;2022-11-30T02:49:29;6.50;99.90
3790;DHT22;1910;49.042;9.028;2022-11-30T02:51:57;6.50;99.90
3790;DHT22;1910;49.042;9.028;2022-11-30T02:54:24;6.50;99.90
3790;DHT22;1910;49.042;9.028;2022-11-30T03:21:11;6.40;99.90
3790;DHT22;1910;49.042;9.028;2022-11-30T03:23:37;6.20;99.90
3790;DHT22;1910;49.042;9.028;2022-11-30T03:26:07;6.40;99.90
3790;DHT22;1910;49.042;9.028;2022-11-30T03:28:34;6.50;99.90
3790;DHT22;1910;49.042;9.028;2022-11-30T03:36:03;6.50;99.90
3790;DHT22;1910;49.042;9.028;2022-11-30T03:41:07;6.40;99.90
3790;DHT22;1910;49.042;9.028;2022-11-30T03:43:34;6.40;99.90
3790;DHT22;1910;49.042;9.028;2022-11-30T03:48:26;6.40;99.90
3790;DHT22;1910;49.042;9.028;2022-11-30T03:53:19;6.20;99.90
3790;DHT22;1910;49.042;9.028;2022-11-30T04:03:04;6.30;99.90
3790;DHT22;1910;49.042;9.028;2022-11-30T04:07:55;6.40;99.90
3790;DHT22;1910;49.042;9.028;2022-11-30T04:12:48;6.40;99.90
3790;DHT22;1910;49.042;9.028;2022-11-30T04:15:17;6.50;99.90
3790;DHT22;1910;49.042;9.028;2022-11-30T04:20:09;6.50;99.90
3790;DHT22;1910;49.042;9.028;2022-11-30T04:27:27;6.60;99.90
3790;DHT22;1910;49.042;9.028;2022-11-30T04:42:03;8.70;99.90
3790;DHT22;1910;49.042;9.028;2022-11-30T04:54:12;6.40;99.90
3790;DHT22;1910;49.042;9.028;2022-11-30T04:56:38;6.30;99.90
3790;DHT22;1910;49.042;9.028;2022-11-30T05:01:31;6.40;99.90
3790;DHT22;1910;49.042;9.028;2022-11-30T05:03:57;7.90;99.90
3790;DHT22;1910;49.042;9.028;2022-11-30T05:06:25;6.40;99.90
3790;DHT22;1910;49.042;9.028;2022-11-30T05:18:37;6.50;99.90
3790;DHT22;1910;49.042;9.028;2022-11-30T05:23:30;6.60;99.90
3790;DHT22;1910;49.042;9.028;2022-11-30T05:25:55;6.50;99.90
3790;DHT22;1910;49.042;9.028;2022-11-30T05:30:47;6.50;99.90
3790;DHT22;1910;49.042;9.028;2022-11-30T05:35:38;6.50;99.90
3790;DHT22;1910;49.042;9.028;2022-11-30T05:40:30;6.50;99.90
3790;DHT22;1910;49.042;9.028;2022-11-30T05:42:59;6.30;99.90
3790;DHT22;1910;49.042;9.028;2022-11-30T05:45:25;6.30;99.90
3790;DHT22;1910;49.042;9.028;2022-11-30T05:47:51;6.30;99.90
3790;DHT22;1910;49.042;9.028;2022-11-30T05:57:38;6.50;99.90
3790;DHT22;1910;49.042;9.028;2022-11-30T06:00:06;6.50;99.90
3790;DHT22;1910;49.042;9.028;2022-11-30T06:02:32;6.50;99.90
3790;DHT22;1910;49.042;9.028;2022-11-30T06:07:24;6.50;99.90
3790;DHT22;1910;49.042;9.028;2022-11-30T06:09:49;6.50;99.90
3790;DHT22;1910;49.042;9.028;2022-11-30T06:17:07;6.50;99.90
3790;DHT22;1910;49.042;9.028;2022-11-30T06:34:08;6.70;99.90
3790;DHT22;1910;49.042;9.028;2022-11-30T06:39:00;6.80;99.90
3790;DHT22;1910;49.042;9.028;2022-11-30T06:43:51;6.70;99.90
3790;DHT22;1910;49.042;9.028;2022-11-30T06:48:47;6.60;99.90
3790;DHT22;1910;49.042;9.028;2022-11-30T06:51:14;6.70;99.90
3790;DHT22;1910;49.042;9.028;2022-11-30T06:53:42;6.70;99.90
3790;DHT22;1910;49.042;9.028;2022-11-30T06:58:35;6.70;99.90
3790;DHT22;1910;49.042;9.028;2022-11-30T07:01:03;6.70;99.90
3790;DHT22;1910;49.042;9.028;2022-11-30T07:13:17;6.50;99.90
3790;DHT22;1910;49.042;9.028;2022-11-30T07:15:44;6.50;99.90
3790;DHT22;1910;49.042;9.028;2022-11-30T07:18:10;6.60;99.90
3790;DHT22;1910;49.042;9.028;2022-11-30T07:20:36;6.50;99.90
3790;DHT22;1910;49.042;9.028;2022-11-30T07:23:03;6.50;99.90
3790;DHT22;1910;49.042;9.028;2022-11-30T07:25:48;6.40;99.90
3790;DHT22;1910;49.042;9.028;2022-11-30T07:28:42;6.10;99.90
3790;DHT22;1910;49.042;9.028;2022-11-30T07:31:18;6.30;99.90
3790;DHT22;1910;49.042;9.028;2022-11-30T07:33:45;6.40;99.90
3790;DHT22;1910;49.042;9.028;2022-11-30T07:36:11;6.60;99.90
3790;DHT22;1910;49.042;9.028;2022-11-30T07:38:37;6.50;99.90
3790;DHT22;1910;49.042;9.028;2022-11-30T07:43:29;6.50;99.90
3790;DHT22;1910;49.042;9.028;2022-11-30T07:48:21;6.70;99.90
3790;DHT22;1910;49.042;9.028;2022-11-30T07:50:47;6.70;99.90
3790;DHT22;1910;49.042;9.028;2022-11-30T07:53:14;6.70;99.90
3790;DHT22;1910;49.042;9.028;2022-11-30T07:55:40;6.80;99.90
3790;DHT22;1910;49.042;9.028;2022-11-30T07:58:06;6.70;99.90
3790;DHT22;1910;49.042;9.028;2022-11-30T08:02:57;6.60;99.90
3790;DHT22;1910;49.042;9.028;2022-11-30T08:05:23;6.70;99.90
3790;DHT22;1910;49.042;9.028;2022-11-30T08:07:52;6.80;99.90
3790;DHT22;1910;49.042;9.028;2022-11-30T08:10:19;6.80;99.90
3790;DHT22;1910;49.042;9.028;2022-11-30T08:12:46;6.80;99.90
3790;DHT22;1910;49.042;9.028;2022-11-30T08:15:12;6.80;99.90
3790;DHT22;1910;49.042;9.028;2022-11-30T08:20:06;6.70;99.90
3790;DHT22;1910;49.042;9.028;2022-11-30T08:22:32;7.00;99.90
3790;DHT22;1910;49.042;9.028;2022-11-30T08:24:58;7.00;99.90
3790;DHT22;1910;49.042;9.028;2022-11-30T08:27:24;7.10;99.90
3790;DHT22;1910;49.042;9.028;2022-11-30T08:29:49;7.30;99.90
3790;DHT22;1910;49.042;9.028;2022-11-30T08:32:15;7.30;99.90
3790;DHT22;1910;49.042;9.028;2022-11-30T08:34:41;7.40;99.90
3790;DHT22;1910;49.042;9.028;2022-11-30T08:39:32;7.50;99.90
3790;DHT22;1910;49.042;9.028;2022-11-30T08:41:59;7.50;99.90
3790;DHT22;1910;49.042;9.028;2022-11-30T08:44:25;7.60;99.90
3790;DHT22;1910;49.042;9.028;2022-11-30T08:46:51;7.60;99.90
3790;DHT22;1910;49.042;9.028;2022-11-30T09:06:27;7.50;99.90
3790;DHT22;1910;49.042;9.028;2022-11-30T09:08:55;7.60;99.90
3790;DHT22;1910;49.042;9.028;2022-11-30T09:11:24;7.60;99.90
3790;DHT22;1910;49.042;9.028;2022-11-30T09:13:52;7.60;99.90
3790;DHT22;1910;49.042;9.028;2022-11-30T09:21:13;7.60;99.90
3790;DHT22;1910;49.042;9.028;2022-11-30T09:23:39;7.60;99.90
3790;DHT22;1910;49.042;9.028;2022-11-30T09:26:08;7.50;99.90
3790;DHT22;1910;49.042;9.028;2022-11-30T09:28:34;7.50;99.90
3790;DHT22;1910;49.042;9.028;2022-11-30T09:31:01;7.50;99.90
3790;DHT22;1910;49.042;9.028;2022-11-30T09:33:28;7.70;99.90
3790;DHT22;1910;49.042;9.028;2022-11-30T09:35:59;7.60;99.90
3790;DHT22;1910;49.042;9.028;2022-11-30T09:38:25;7.60;99.90
3790;DHT22;1910;49.042;9.028;2022-11-30T09:40:59;7.60;99.90
3790;DHT22;1910;49.042;9.028;2022-11-30T09:46:11;7.60;99.90
3790;DHT22;1910;49.042;9.028;2022-11-30T09:49:01;7.60;99.90
3790;DHT22;1910;49.042;9.028;2022-11-30T09:54:05;7.70;99.90
3790;DHT22;1910;49.042;9.028;2022-11-30T09:56:37;7.80;99.90
3790;DHT22;1910;49.042;9.028;2022-11-30T09:59:23;7.80;99.90
3790;DHT22;1910;49.042;9.028;2022-11-30T10:01:55;7.90;99.90
3790;DHT22;1910;49.042;9.028;2022-11-30T10:04:24;7.90;99.90
3790;DHT22;1910;49.042;9.028;2022-11-30T10:07:21;7.80;99.90
3790;DHT22;1910;49.042;9.028;2022-11-30T10:13:17;7.80;99.90
3790;DHT22;1910;49.042;9.028;2022-11-30T10:18:43;7.60;99.90
3790;DHT22;1910;49.042;9.028;2022-11-30T10:24:41;7.70;99.90
3790;DHT22;1910;49.042;9.028;2022-11-30T10:29:50;7.90;99.90
3790;DHT22;1910;49.042;9.028;2022-11-30T10:32:21;7.90;99.90
3790;DHT22;1910;49.042;9.028;2022-11-30T10:34:54;7.90;99.90
3790;DHT22;1910;49.042;9.028;2022-11-30T10:37:24;8.00;99.90
3790;DHT22;1910;49.042;9.028;2022-11-30T10:40:03;8.00;99.90
3790;DHT22;1910;49.042;9.028;2022-11-30T10:42:47;8.10;99.90
3790;DHT22;1910;49.042;9.028;2022-11-30T10:45:19;8.30;99.90
3790;DHT22;1910;49.042;9.028;2022-11-30T10:50:15;8.20;99.90
3790;DHT22;1910;49.042;9.028;2022-11-30T10:52:50;8.10;99.90
3790;DHT22;1910;49.042;9.028;2022-11-30T10:55:25;8.20;99.90
3790;DHT22;1910;49.042;9.028;2022-11-30T10:58:04;8.20;99.90
3790;DHT22;1910;49.042;9.028;2022-11-30T11:00:31;8.40;99.90
3790;DHT22;1910;49.042;9.028;2022-11-30T11:05:26;8.80;99.90
3790;DHT22;1910;49.042;9.028;2022-11-30T11:08:02;8.80;99.90
3790;DHT22;1910;49.042;9.028;2022-11-30T11:10:35;9.10;99.90
3790;DHT22;1910;49.042;9.028;2022-11-30T11:15:29;9.30;99.90
3790;DHT22;1910;49.042;9.028;2022-11-30T11:18:27;9.10;99.90
3790;DHT22;1910;49.042;9.028;2022-11-30T11:21:16;8.90;99.90
3790;DHT22;1910;49.042;9.028;2022-11-30T11:23:43;8.80;99.90
3790;DHT22;1910;49.042;9.028;2022-11-30T11:26:24;8.80;99.90
3790;DHT22;1910;49.042;9.028;2022-11-30T11:28:54;9.10;99.90
3790;DHT22;1910;49.042;9.028;2022-11-30T11:31:43;9.10;99.90
3790;DHT22;1910;49.042;9.028;2022-11-30T11:34:25;9.10;99.90
3790;DHT22;1910;49.042;9.028;2022-11-30T11:39:38;9.10;99.90
3790;DHT22;1910;49.042;9.028;2022-11-30T11:47:04;8.90;99.90
3790;DHT22;1910;49.042;9.028;2022-11-30T11:49:34;8.60;99.90
3790;DHT22;1910;49.042;9.028;2022-11-30T11:52:05;8.60;99.90
3790;DHT22;1910;49.042;9.028;2022-11-30T11:54:50;8.50;99.90
3790;DHT22;1910;49.042;9.028;2022-11-30T11:57:20;8.50;99.90
3790;DHT22;1910;49.042;9.028;2022-11-30T12:03:22;8.80;99.90
3790;DHT22;1910;49.042;9.028;2022-11-30T12:05:57;8.80;99.90
3790;DHT22;1910;49.042;9.028;2022-11-30T12:08:40;8.80;99.90
3790;DHT22;1910;49.042;9.028;2022-11-30T12:11:22;8.50;99.90
3790;DHT22;1910;49.042;9.028;2022-11-30T12:13:49;8.50;99.90
3790;DHT22;1910;49.042;9.028;2022-11-30T12:16:24;8.30;99.90
3790;DHT22;1910;49.042;9.028;2022-11-30T12:24:27;8.20;99.90
3790;DHT22;1910;49.042;9.028;2022-11-30T12:27:10;8.40;99.90
3790;DHT22;1910;49.042;9.028;2022-11-30T12:30:05;8.50;99.90
3790;DHT22;1910;49.042;9.028;2022-11-30T12:35:35;8.80;99.90
3790;DHT22;1910;49.042;9.028;2022-11-30T12:38:19;9.00;99.90
3790;DHT22;1910;49.042;9.028;2022-11-30T12:43:41;9.10;99.90
3790;DHT22;1910;49.042;9.028;2022-11-30T12:51:53;8.80;99.90
3790;DHT22;1910;49.042;9.028;2022-11-30T12:54:32;8.70;99.90
3790;DHT22;1910;49.042;9.028;2022-11-30T12:57:16;8.60;99.90
3790;DHT22;1910;49.042;9.028;2022-11-30T12:59:52;8.50;99.90
3790;DHT22;1910;49.042;9.028;2022-11-30T13:05:16;8.40;99.90
3790;DHT22;1910;49.042;9.028;2022-11-30T13:07:50;8.20;99.90
3790;DHT22;1910;49.042;9.028;2022-11-30T13:10:32;8.20;99.90
3790;DHT22;1910;49.042;9.028;2022-11-30T13:12:59;8.20;99.90
3790;DHT22;1910;49.042;9.028;2022-11-30T13:15:32;8.20;99.90
3790;DHT22;1910;49.042;9.028;2022-11-30T13:17:59;8.20;99.90
3790;DHT22;1910;49.042;9.028;2022-11-30T13:20:54;8.20;99.90
3790;DHT22;1910;49.042;9.028;2022-11-30T13:23:31;8.10;99.90
3790;DHT22;1910;49.042;9.028;2022-11-30T13:32:10;8.00;99.90
3790;DHT22;1910;49.042;9.028;2022-11-30T13:34:36;8.10;99.90
3790;DHT22;1910;49.042;9.028;2022-11-30T13:37:19;8.00;99.90
3790;DHT22;1910;49.042;9.028;2022-11-30T13:39:55;8.10;99.90
3790;DHT22;1910;49.042;9.028;2022-11-30T13:42:31;8.10;99.90
3790;DHT22;1910;49.042;9.028;2022-11-30T13:47:48;8.20;99.90
3790;DHT22;1910;49.042;9.028;2022-11-30T13:50:35;8.20;99.90
3790;DHT22;1910;49.042;9.028;2022-11-30T13:53:25;8.10;99.90
3790;DHT22;1910;49.042;9.028;2022-11-30T13:55:57;8.10;99.90
3790;DHT22;1910;49.042;9.028;2022-11-30T13:58:23;8.10;99.90
3790;DHT22;1910;49.042;9.028;2022-11-30T14:01:24;8.10;99.90
3790;DHT22;1910;49.042;9.028;2022-11-30T14:06:46;8.10;99.90
3790;DHT22;1910;49.042;9.028;2022-11-30T14:17:45;8.10;99.90
3790;DHT22;1910;49.042;9.028;2022-11-30T14:20:16;8.10;99.90
3790;DHT22;1910;49.042;9.028;2022-11-30T14:22:44;7.90;99.90
3790;DHT22;1910;49.042;9.028;2022-11-30T14:25:17;7.70;99.90
3790;DHT22;1910;49.042;9.028;2022-11-30T14:27:45;7.80;99.90
3790;DHT22;1910;49.042;9.028;2022-11-30T14:30:16;7.70;99.90
3790;DHT22;1910;49.042;9.028;2022-11-30T14:32:45;7.60;99.90
3790;DHT22;1910;49.042;9.028;2022-11-30T14:35:17;7.40;99.90
3790;DHT22;1910;49.042;9.028;2022-11-30T14:37:55;7.40;99.90
3790;DHT22;1910;49.042;9.028;2022-11-30T14:40:23;7.40;99.90
3790;DHT22;1910;49.042;9.028;2022-11-30T14:43:01;7.30;99.90
3790;DHT22;1910;49.042;9.028;2022-11-30T14:45:32;7.30;99.90
3790;DHT22;1910;49.042;9.028;2022-11-30T14:48:11;7.20;99.90
3790;DHT22;1910;49.042;9.028;2022-11-30T14:50:59;7.20;99.90
3790;DHT22;1910;49.042;9.028;2022-11-30T14:53:34;7.20;99.90
3790;DHT22;1910;49.042;9.028;2022-11-30T14:56:03;7.20;99.90
3790;DHT22;1910;49.042;9.028;2022-11-30T15:01:30;7.20;99.90
3790;DHT22;1910;49.042;9.028;2022-11-30T15:04:09;7.20;99.90
3790;DHT22;1910;49.042;9.028;2022-11-30T15:06:37;7.20;99.90
3790;DHT22;1910;49.042;9.028;2022-11-30T15:09:04;7.20;99.90
3790;DHT22;1910;49.042;9.028;2022-11-30T15:11:40;7.20;99.90
3790;DHT22;1910;49.042;9.028;2022-11-30T15:14:09;7.20;99.90
3790;DHT22;1910;49.042;9.028;2022-11-30T15:16:35;7.10;99.90
3790;DHT22;1910;49.042;9.028;2022-11-30T15:19:17;7.10;99.90
3790;DHT22;1910;49.042;9.028;2022-11-30T15:21:45;7.10;99.90
3790;DHT22;1910;49.042;9.028;2022-11-30T15:26:57;7.10;99.90
3790;DHT22;1910;49.042;9.028;2022-11-30T15:31:54;7.00;99.90
3790;DHT22;1910;49.042;9.028;2022-11-30T15:36:54;6.80;99.90
3790;DHT22;1910;49.042;9.028;2022-11-30T15:39:22;6.70;99.90
3790;DHT22;1910;49.042;9.028;2022-11-30T15:41:53;6.70;99.90
3790;DHT22;1910;49.042;9.028;2022-11-30T15:47:00;6.70;99.90
3790;DHT22;1910;49.042;9.028;2022-11-30T15:49:28;6.70;99.90
3790;DHT22;1910;49.042;9.028;2022-11-30T15:54:48;6.70;99.90
3790;DHT22;1910;49.042;9.028;2022-11-30T15:57:15;6.70;99.90
3790;DHT22;1910;49.042;9.028;2022-11-30T15:59:41;6.70;99.90
3790;DHT22;1910;49.042;9.028;2022-11-30T16:02:24;6.60;99.90
3790;DHT22;1910;49.042;9.028;2022-11-30T16:07:23;6.50;99.90
3790;DHT22;1910;49.042;9.028;2022-11-30T16:09:50;6.50;99.90
3790;DHT22;1910;49.042;9.028;2022-11-30T16:12:26;6.50;99.90
3790;DHT22;1910;49.042;9.028;2022-11-30T16:14:52;6.50;99.90
3790;DHT22;1910;49.042;9.028;2022-11-30T16:19:43;6.50;99.90
3790;DHT22;1910;49.042;9.028;2022-11-30T16:22:13;6.50;99.90
3790;DHT22;1910;49.042;9.028;2022-11-30T16:27:16;6.60;99.90
3790;DHT22;1910;49.042;9.028;2022-11-30T16:29:42;6.60;99.90
3790;DHT22;1910;49.042;9.028;2022-11-30T16:32:12;6.60;99.90
3790;DHT22;1910;49.042;9.028;2022-11-30T16:34:38;6.60;99.90
3790;DHT22;1910;49.042;9.028;2022-11-30T16:37:09;6.50;99.90
3790;DHT22;1910;49.042;9.028;2022-11-30T16:39:35;6.50;99.90
3790;DHT22;1910;49.042;9.028;2022-11-30T16:46:53;6.40;99.90
3790;DHT22;1910;49.042;9.028;2022-11-30T16:49:19;6.40;99.90
3790;DHT22;1910;49.042;9.028;2022-11-30T16:51:46;6.40;99.90
3790;DHT22;1910;49.042;9.028;2022-11-30T16:54:13;6.40;99.90
3790;DHT22;1910;49.042;9.028;2022-11-30T16:56:40;6.30;99.90
3790;DHT22;1910;49.042;9.028;2022-11-30T16:59:06;6.30;99.90
3790;DHT22;1910;49.042;9.028;2022-11-30T17:01:35;6.30;99.90
3790;DHT22;1910;49.042;9.028;2022-11-30T17:04:11;6.40;99.90
3790;DHT22;1910;49.042;9.028;2022-11-30T17:06:39;6.40;99.90
3790;DHT22;1910;49.042;9.028;2022-11-30T17:11:33;6.40;99.90
3790;DHT22;1910;49.042;9.028;2022-11-30T17:13:59;6.40;99.90
3790;DHT22;1910;49.042;9.028;2022-11-30T17:18:51;6.40;99.90
3790;DHT22;1910;49.042;9.028;2022-11-30T17:21:19;6.40;99.90
3790;DHT22;1910;49.042;9.028;2022-11-30T17:26:12;6.40;99.90
3790;DHT22;1910;49.042;9.028;2022-11-30T17:28:38;6.40;99.90
3790;DHT22;1910;49.042;9.028;2022-11-30T17:31:05;6.40;99.90
3790;DHT22;1910;49.042;9.028;2022-11-30T17:33:34;6.40;99.90
3790;DHT22;1910;49.042;9.028;2022-11-30T17:36:05;6.40;99.90
3790;DHT22;1910;49.042;9.028;2022-11-30T17:38:33;6.40;99.90
3790;DHT22;1910;49.042;9.028;2022-11-30T17:40:59;6.30;99.90
3790;DHT22;1910;49.042;9.028;2022-11-30T17:45:50;6.40;99.90
3790;DHT22;1910;49.042;9.028;2022-11-30T17:48:16;6.30;99.90
3790;DHT22;1910;49.042;9.028;2022-11-30T17:50:42;6.50;99.90
3790;DHT22;1910;49.042;9.028;2022-11-30T17:53:09;6.50;99.90
3790;DHT22;1910;49.042;9.028;2022-11-30T17:55:35;6.60;99.90
3790;DHT22;1910;49.042;9.028;2022-11-30T17:58:00;6.50;99.90
3790;DHT22;1910;49.042;9.028;2022-11-30T18:00:26;6.50;99.90
3790;DHT22;1910;49.042;9.028;2022-11-30T18:02:52;6.30;99.90
3790;DHT22;1910;49.042;9.028;2022-11-30T18:05:19;6.20;99.90
3790;DHT22;1910;49.042;9.028;2022-11-30T18:07:44;6.20;99.90
3790;DHT22;1910;49.042;9.028;2022-11-30T18:10:10;6.10;99.90
3790;DHT22;1910;49.042;9.028;2022-11-30T18:12:36;6.00;99.90
3790;DHT22;1910;49.042;9.028;2022-11-30T18:15:01;5.90;99.90
3790;DHT22;1910;49.042;9.028;2022-11-30T18:17:27;5.80;99.90
3790;DHT22;1910;49.042;9.028;2022-11-30T18:19:53;5.60;99.90
3790;DHT22;1910;49.042;9.028;2022-11-30T18:22:19;5.70;99.90
3790;DHT22;1910;49.042;9.028;2022-11-30T18:24:44;5.80;99.90
3790;DHT22;1910;49.042;9.028;2022-11-30T18:27:10;5.70;99.90
3790;DHT22;1910;49.042;9.028;2022-11-30T18:29:36;5.70;99.90
3790;DHT22;1910;49.042;9.028;2022-11-30T18:32:02;5.60;99.90
3790;DHT22;1910;49.042;9.028;2022-11-30T18:34:27;7.50;99.90
3790;DHT22;1910;49.042;9.028;2022-11-30T18:36:53;5.50;99.90
3790;DHT22;1910;49.042;9.028;2022-11-30T18:39:19;5.50;99.90
3790;DHT22;1910;49.042;9.028;2022-11-30T18:41:44;5.50;99.90
3790;DHT22;1910;49.042;9.028;2022-11-30T18:44:10;5.40;99.90
3790;DHT22;1910;49.042;9.028;2022-11-30T18:46:35;5.50;99.90
3790;DHT22;1910;49.042;9.028;2022-11-30T18:49:01;5.40;99.90
3790;DHT22;1910;49.042;9.028;2022-11-30T18:51:28;5.50;99.90
3790;DHT22;1910;49.042;9.028;2022-11-30T18:53:59;5.50;99.90
3790;DHT22;1910;49.042;9.028;2022-11-30T18:56:27;5.40;99.90
3790;DHT22;1910;49.042;9.028;2022-11-30T18:58:55;5.40;99.90
3790;DHT22;1910;49.042;9.028;2022-11-30T19:01:21;5.50;99.90
3790;DHT22;1910;49.042;9.028;2022-11-30T19:03:54;5.40;99.90
3790;DHT22;1910;49.042;9.028;2022-11-30T19:06:21;5.40;99.90
3790;DHT22;1910;49.042;9.028;2022-11-30T19:08:50;5.30;99.90
3790;DHT22;1910;49.042;9.028;2022-11-30T19:11:16;5.30;99.90
3790;DHT22;1910;49.042;9.028;2022-11-30T19:13:43;5.40;99.90
3790;DHT22;1910;49.042;9.028;2022-11-30T19:16:11;5.40;99.90
3790;DHT22;1910;49.042;9.028;2022-11-30T19:18:37;5.30;99.90
3790;DHT22;1910;49.042;9.028;2022-11-30T19:21:10;5.30;99.90
3790;DHT22;1910;49.042;9.028;2022-11-30T19:23:37;5.20;99.90
3790;DHT22;1910;49.042;9.028;2022-11-30T19:26:03;5.10;99.90
3790;DHT22;1910;49.042;9.028;2022-11-30T19:28:30;5.10;99.90
3790;DHT22;1910;49.042;9.028;2022-11-30T19:30:56;5.10;99.90
3790;DHT22;1910;49.042;9.028;2022-11-30T19:33:22;5.10;99.90
3790;DHT22;1910;49.042;9.028;2022-11-30T19:35:48;5.10;99.90
3790;DHT22;1910;49.042;9.028;2022-11-30T19:38:15;5.00;99.90
3790;DHT22;1910;49.042;9.028;2022-11-30T19:40:40;5.00;99.90
3790;DHT22;1910;49.042;9.028;2022-11-30T19:43:06;5.00;99.90
3790;DHT22;1910;49.042;9.028;2022-11-30T19:45:33;4.80;99.90
3790;DHT22;1910;49.042;9.028;2022-11-30T19:47:58;4.80;99.90
3790;DHT22;1910;49.042;9.028;2022-11-30T19:50:24;4.70;99.90
3790;DHT22;1910;49.042;9.028;2022-11-30T19:52:50;4.70;99.90
3790;DHT22;1910;49.042;9.028;2022-11-30T19:55:15;4.50;99.90
3790;DHT22;1910;49.042;9.028;2022-11-30T19:57:41;4.50;99.90
3790;DHT22;1910;49.042;9.028;2022-11-30T20:00:07;4.50;99.90
3790;DHT22;1910;49.042;9.028;2022-11-30T20:02:34;4.50;99.90
3790;DHT22;1910;49.042;9.028;2022-11-30T20:04:59;4.50;99.90
3790;DHT22;1910;49.042;9.028;2022-11-30T20:07:25;4.50;99.90
3790;DHT22;1910;49.042;9.028;2022-11-30T20:09:51;4.60;99.90
3790;DHT22;1910;49.042;9.028;2022-11-30T20:12:17;4.60;99.90
3790;DHT22;1910;49.042;9.028;2022-11-30T20:14:43;4.50;99.90
3790;DHT22;1910;49.042;9.028;2022-11-30T20:17:09;4.50;99.90
3790;DHT22;1910;49.042;9.028;2022-11-30T20:19:35;4.50;99.90
3790;DHT22;1910;49.042;9.028;2022-11-30T20:22:00;4.50;99.90
3790;DHT22;1910;49.042;9.028;2022-11-30T20:24:29;4.40;99.90
3790;DHT22;1910;49.042;9.028;2022-11-30T20:26:55;4.40;99.90
3790;DHT22;1910;49.042;9.028;2022-11-30T20:29:21;4.50;99.90
3790;DHT22;1910;49.042;9.028;2022-11-30T20:31:48;4.50;99.90
3790;DHT22;1910;49.042;9.028;2022-11-30T20:34:14;4.40;99.90
3790;DHT22;1910;49.042;9.028;2022-11-30T20:39:06;4.50;99.90
3790;DHT22;1910;49.042;9.028;2022-11-30T20:41:32;4.40;99.90
3790;DHT22;1910;49.042;9.028;2022-11-30T20:43:58;4.40;99.90
3790;DHT22;1910;49.042;9.028;2022-11-30T20:48:55;4.40;99.90
3790;DHT22;1910;49.042;9.028;2022-11-30T20:51:22;4.50;99.90
3790;DHT22;1910;49.042;9.028;2022-11-30T20:53:48;4.40;99.90
3790;DHT22;1910;49.042;9.028;2022-11-30T20:56:14;4.50;99.90
3790;DHT22;1910;49.042;9.028;2022-11-30T21:01:12;4.30;99.90
3790;DHT22;1910;49.042;9.028;2022-11-30T21:03:38;4.30;99.90
3790;DHT22;1910;49.042;9.028;2022-11-30T21:06:04;4.30;99.90
3790;DHT22;1910;49.042;9.028;2022-11-30T21:08:34;4.30;99.90
3790;DHT22;1910;49.042;9.028;2022-11-30T21:11:05;4.30;99.90
3790;DHT22;1910;49.042;9.028;2022-11-30T21:13:31;4.40;99.90
3790;DHT22;1910;49.042;9.028;2022-11-30T21:15:57;4.40;99.90
3790;DHT22;1910;49.042;9.028;2022-11-30T21:18:23;4.40;99.90
3790;DHT22;1910;49.042;9.028;2022-11-30T21:20:48;4.40;99.90
3790;DHT22;1910;49.042;9.028;2022-11-30T21:23:14;4.30;99.90
3790;DHT22;1910;49.042;9.028;2022-11-30T21:25:40;4.40;99.90
3790;DHT22;1910;49.042;9.028;2022-11-30T21:28:05;4.40;99.90
3790;DHT22;1910;49.042;9.028;2022-11-30T21:30:31;4.40;99.90
3790;DHT22;1910;49.042;9.028;2022-11-30T21:35:23;4.40;99.90
3790;DHT22;1910;49.042;9.028;2022-11-30T21:40:14;4.40;99.90
3790;DHT22;1910;49.042;9.028;2022-11-30T21:42:40;4.40;99.90
3790;DHT22;1910;49.042;9.028;2022-11-30T21:45:08;4.40;99.90
3790;DHT22;1910;49.042;9.028;2022-11-30T21:47:34;4.40;99.90
3790;DHT22;1910;49.042;9.028;2022-11-30T21:50:00;4.40;99.90
3790;DHT22;1910;49.042;9.028;2022-11-30T21:52:26;4.40;99.90
3790;DHT22;1910;49.042;9.028;2022-11-30T21:57:19;4.40;99.90
3790;DHT22;1910;49.042;9.028;2022-11-30T22:04:37;4.40;99.90
3790;DHT22;1910;49.042;9.028;2022-11-30T22:07:04;4.50;99.90
3790;DHT22;1910;49.042;9.028;2022-11-30T22:09:29;4.50;99.90
3790;DHT22;1910;49.042;9.028;2022-11-30T22:11:55;4.50;99.90
3790;DHT22;1910;49.042;9.028;2022-11-30T22:14:23;4.50;99.90
3790;DHT22;1910;49.042;9.028;2022-11-30T22:16:49;4.40;99.90
3790;DHT22;1910;49.042;9.028;2022-11-30T22:19:16;4.50;99.90
3790;DHT22;1910;49.042;9.028;2022-11-30T22:21:43;4.40;99.90
3790;DHT22;1910;49.042;9.028;2022-11-30T22:24:10;4.30;99.90
3790;DHT22;1910;49.042;9.028;2022-11-30T22:26:39;4.20;99.90
3790;DHT22;1910;49.042;9.028;2022-11-30T22:29:16;4.10;99.90
3790;DHT22;1910;49.042;9.028;2022-11-30T22:31:44;4.10;99.90
3790;DHT22;1910;49.042;9.028;2022-11-30T22:34:10;4.00;99.90
3790;DHT22;1910;49.042;9.028;2022-11-30T22:36:39;3.90;99.90
3790;DHT22;1910;49.042;9.028;2022-11-30T22:39:08;3.90;99.90
3790;DHT22;1910;49.042;9.028;2022-11-30T22:41:35;3.80;99.90
3790;DHT22;1910;49.042;9.028;2022-11-30T22:44:00;3.80;99.90
3790;DHT22;1910;49.042;9.028;2022-11-30T22:46:28;3.90;99.90
3790;DHT22;1910;49.042;9.028;2022-11-30T22:48:54;3.90;99.90
3790;DHT22;1910;49.042;9.028;2022-11-30T22:51:22;3.90;99.90
3790;DHT22;1910;49.042;9.028;2022-11-30T22:53:49;3.90;99.90
3790;DHT22;1910;49.042;9.028;2022-11-30T22:56:21;4.00;99.90
3790;DHT22;1910;49.042;9.028;2022-11-30T22:58:48;3.90;99.90